Capitol Logistics 319


KIAD
Washington Dulles International Airport
Dulles, Virginia, US
KSEA
Seattle-Tacoma International Airport
Seattle, Washington, US

Route Details

Aircraft Information
Primary: Boeing 767-300BDSF
Backup: Not Available
Route Data
Distance: 2001nm
Sched. Duration: 6h 20m
Avg. Duration: 5h 33m (-87m)
Times Flown: 6
Recm'd Route: MCRAY2 MCRAY J518 IHD LEJOY J518 DJB J34 HASTE KP87M CESNA ISN MLP GLASR1
Planned Altitude: 30,000ft
Origin Wx: KIAD 220252Z 28006KT 10SM CLR 03/M08 A2971 RMK AO2 SLP061 T00281078 51010
Dest. Wx: KSEA 220253Z 01010KT 10SM BKN043 OVC090 06/03 A3004 RMK AO2 SLP179 T00610033 53004
Notes:

Financial History
Total Freight: 498,169lbs
Average Load: 83,028lbs/flt
Fuel Used: 338,702lbs
Avg. Fuel Used: 56,450lbs/flt
Fuel Expense: $439,773
Avg. Fuel Expense: $73,295
Avg. Fuel Cost: $1.30/lbs
Total Gross Income: $677,251
Pilot Pay: $1,454
Total Expenses: $73,455
Total Revenue: $155,692
Average Revenue: $112,875.13